首页
METAR-TAF:

METAR-TAF

机场 :

伯明翰机场

伯明翰, 英格兰

纬度: 52-27N, 经度: 001-44W, 海拔: 99米

当前天气观测

该预报发布于23分钟前的01:20 UTC
风速9节,风向东转东北
温度 5°C
湿度 93%
气压 990 hPa
能见度10公里或以上

METAR: EGBB 140120Z AUTO 07009KT 9999 RA BKN009/// OVC013/// 05/04 Q0990

时间: 01:43 (01:43 UTC)

预报

该预报发布于39分钟前的01:04 UTC
预报有效从14日的 01点(UTC)到 14日的 24点(UTC)
风速9节,风向
能见度10公里或以上
散云层高于800英尺
多云层高于1600英尺
成为
从 14日的 01点(UTC)到 14日的 04点(UTC)
风速13节,风向北转东北
短暂存在
从 14日的 01点(UTC)到 14日的 18点(UTC)
能見度: 6000
多云层高于800英尺
几率 40% :
短暂存在
从 14日的 06点(UTC)到 14日的 18点(UTC)
风速17节,风向东北,有时为27节阵风
几率 30% :
短暂存在
从 14日的 10点(UTC)到 14日的 16点(UTC)
能見度: 4000
大阵雨
短暂存在
从 14日的 18点(UTC)到 14日的 24点(UTC)
能見度: 8000
多云层高于800英尺
小雨

TAF: EGBB 140104Z 1401/1424 09009KT 9999 SCT008 BKN016 BECMG 1401/1404 03013KT TEMPO 1401/1418 6000 RA BKN008 PROB40 TEMPO 1406/1418 04017G27KT PROB30 TEMPO 1410/1416 4000 +SHRA TEMPO 1418/1424 8000 -RA BKN008

超过4000个机场的气象观测和天气预报(METAR&TAF报告)。

可查询的气象台以黄色和红色小点在地图上表示。

将鼠标移到小点上方,可查看气象台名称。

然后点击查看天气观测和预报。

如需切换地图:点击带黑十字的绿色按钮放大地图;点击带横线的绿色按钮缩小地图;或者点击绿色箭头查看邻近地区的地图。


METAR-TAF: